Terminal Aerodrome Forecast
Issued by NWS

Home | Current Version | Previous Version | Text Only | Print | Product List | Glossary On
Versions: 1 2 3 4 5 6 7 8 9 10 11 12 13 14
000
FTUS43 KOAX 191720
TAFSNY
TAF
KSNY 191720Z 1918/2018 16025G35KT P6SM SCT250
     FM200200 14025G40KT P6SM BKN200=

USA.gov is the U.S. government's official web portal to all federal, state and local government web resources and services.